createdAt,value
2022-11-25T00:01:18.748Z,1.20
2022-11-25T00:03:45.554Z,1.70
2022-11-25T00:06:20.556Z,1.50
2022-11-25T00:08:49.419Z,1.73
2022-11-25T00:11:16.250Z,1.80
2022-11-25T00:13:42.988Z,1.63
2022-11-25T00:16:11.338Z,1.53
2022-11-25T00:18:38.047Z,1.40
2022-11-25T00:21:08.765Z,1.27
2022-11-25T00:23:35.728Z,1.67
2022-11-25T00:26:09.724Z,1.80
2022-11-25T00:28:36.443Z,1.50
2022-11-25T00:31:13.581Z,1.30
2022-11-25T00:33:40.318Z,1.77
2022-11-25T00:36:10.591Z,1.50
2022-11-25T00:38:37.238Z,1.40
2022-11-25T00:41:22.283Z,2.13
2022-11-25T00:44:07.378Z,1.60
2022-11-25T00:46:33.969Z,1.83
2022-11-25T00:49:00.575Z,1.43
2022-11-25T00:51:27.163Z,1.50
2022-11-25T00:53:58.750Z,1.73
2022-11-25T00:56:25.930Z,1.60
2022-11-25T00:58:52.870Z,1.73
2022-11-25T01:01:19.500Z,2.00
2022-11-25T01:03:49.180Z,1.70
2022-11-25T01:06:15.788Z,1.60
2022-11-25T01:08:42.380Z,1.90
2022-11-25T01:11:11.870Z,1.90
2022-11-25T01:13:38.451Z,1.53
2022-11-25T01:16:05.912Z,1.57
2022-11-25T01:18:32.699Z,2.13
2022-11-25T01:21:37.912Z,1.60
2022-11-25T01:24:05.115Z,1.60
2022-11-25T01:26:31.932Z,1.80
2022-11-25T01:29:04.090Z,1.60
2022-11-25T01:31:32.405Z,1.70
2022-11-25T01:34:03.781Z,1.50
2022-11-25T01:36:31.429Z,1.77
2022-11-25T01:38:59.184Z,1.20
2022-11-25T01:41:27.529Z,1.60
2022-11-25T01:44:05.639Z,1.50
2022-11-25T01:46:55.323Z,1.40
2022-11-25T01:49:31.015Z,1.30
2022-11-25T01:52:04.916Z,1.37
2022-11-25T01:54:33.866Z,1.50
2022-11-25T01:57:06.688Z,1.20
2022-11-25T01:59:34.171Z,1.60
2022-11-25T02:02:00.918Z,1.67
2022-11-25T02:04:30.042Z,1.80
2022-11-25T02:06:59.217Z,1.47
2022-11-25T02:09:25.793Z,1.67
2022-11-25T02:11:52.508Z,1.50
2022-11-25T02:14:19.156Z,1.50
2022-11-25T02:16:45.926Z,1.47
2022-11-25T02:19:28.209Z,1.80
2022-11-25T02:21:56.722Z,2.00
2022-11-25T02:24:40.383Z,1.83
2022-11-25T02:27:06.972Z,1.60
2022-11-25T02:29:33.547Z,1.60
2022-11-25T02:32:00.229Z,1.87
2022-11-25T02:34:26.893Z,1.77
2022-11-25T02:36:53.499Z,1.63
2022-11-25T02:39:20.156Z,1.60
2022-11-25T02:41:54.370Z,1.90
2022-11-25T02:44:20.964Z,1.80
2022-11-25T02:46:47.655Z,1.70
2022-11-25T02:49:14.249Z,2.00
2022-11-25T02:51:43.836Z,2.27
2022-11-25T02:54:11.691Z,2.17
2022-11-25T02:56:38.355Z,1.70
2022-11-25T02:59:04.983Z,1.90
2022-11-25T03:01:31.911Z,1.90
2022-11-25T03:03:58.906Z,1.50
2022-11-25T03:06:25.615Z,1.40
2022-11-25T03:08:52.225Z,1.37
2022-11-25T03:11:18.835Z,1.30
2022-11-25T03:13:45.484Z,1.43
2022-11-25T03:16:12.140Z,1.60
2022-11-25T03:18:38.807Z,1.60
2022-11-25T03:21:05.701Z,1.40
2022-11-25T03:23:32.289Z,1.23
2022-11-25T03:25:58.920Z,1.40
2022-11-25T03:28:25.509Z,1.60
2022-11-25T03:30:52.172Z,1.50
2022-11-25T03:33:18.822Z,1.40
2022-11-25T03:35:45.427Z,1.47
2022-11-25T03:38:12.010Z,1.60
2022-11-25T03:40:38.641Z,1.40
2022-11-25T03:43:05.288Z,1.17
2022-11-25T03:45:31.963Z,1.50
2022-11-25T03:47:58.679Z,1.40
2022-11-25T03:50:25.348Z,1.50
2022-11-25T03:52:51.952Z,1.47
2022-11-25T03:55:18.611Z,1.20
2022-11-25T03:57:45.222Z,1.30
2022-11-25T04:00:12.262Z,1.10
2022-11-25T04:02:38.929Z,1.10
2022-11-25T04:05:05.919Z,1.40
2022-11-25T04:07:32.610Z,1.40
2022-11-25T04:09:59.253Z,1.67
2022-11-25T04:12:44.320Z,1.20
2022-11-25T04:15:11.035Z,1.50
2022-11-25T04:17:37.811Z,1.20
2022-11-25T04:20:04.993Z,1.60
2022-11-25T04:22:31.608Z,1.13
2022-11-25T04:24:58.210Z,1.00
2022-11-25T04:27:24.874Z,1.03
2022-11-25T04:29:51.459Z,0.93
2022-11-25T04:32:18.196Z,1.20
2022-11-25T04:34:44.788Z,1.30
2022-11-25T04:37:11.405Z,1.03
2022-11-25T04:39:38.010Z,1.30
2022-11-25T04:42:23.098Z,1.53
2022-11-25T04:45:07.610Z,1.00
2022-11-25T04:47:36.377Z,1.10
2022-11-25T04:50:04.294Z,1.20
2022-11-25T04:52:31.041Z,1.27
2022-11-25T04:54:57.644Z,1.23
2022-11-25T04:57:24.284Z,1.20
2022-11-25T04:59:51.043Z,1.33
2022-11-25T05:02:20.072Z,1.27
2022-11-25T05:04:47.693Z,1.10
2022-11-25T05:07:14.556Z,1.20
2022-11-25T05:09:41.252Z,1.20
2022-11-25T05:12:08.301Z,1.10
2022-11-25T05:14:35.663Z,1.17
2022-11-25T05:17:03.768Z,1.07
2022-11-25T05:19:30.431Z,1.20
2022-11-25T05:21:57.159Z,1.03
2022-11-25T05:24:24.813Z,1.30
2022-11-25T05:26:51.585Z,1.10
2022-11-25T05:29:18.197Z,1.10
2022-11-25T05:31:44.839Z,1.10
2022-11-25T05:34:11.432Z,1.20
2022-11-25T05:36:38.070Z,1.17
2022-11-25T05:39:04.773Z,1.23
2022-11-25T05:41:31.389Z,1.10
2022-11-25T05:43:58.033Z,1.13
2022-11-25T05:46:24.695Z,1.00
2022-11-25T05:48:55.145Z,1.10
2022-11-25T05:51:22.091Z,0.80
2022-11-25T05:53:48.690Z,1.10
2022-11-25T05:56:15.285Z,0.87
2022-11-25T05:58:41.869Z,0.90
2022-11-25T06:01:09.330Z,1.10
2022-11-25T06:03:36.341Z,0.80
2022-11-25T06:06:03.062Z,0.90
2022-11-25T06:08:29.689Z,1.00
2022-11-25T06:10:56.277Z,0.83
2022-11-25T06:13:22.984Z,0.90
2022-11-25T06:15:49.656Z,0.80
2022-11-25T06:18:17.227Z,1.20
2022-11-25T06:20:44.811Z,1.00
2022-11-25T06:23:11.436Z,1.00
2022-11-25T06:25:38.036Z,0.90
2022-11-25T06:28:12.765Z,1.00
2022-11-25T06:30:39.841Z,0.83
2022-11-25T06:33:06.437Z,0.80
2022-11-25T06:35:33.051Z,0.90
2022-11-25T06:37:59.708Z,1.00
2022-11-25T06:40:26.301Z,0.80
2022-11-25T06:42:52.941Z,0.80
2022-11-25T06:45:19.548Z,0.87
2022-11-25T06:47:46.148Z,1.00
2022-11-25T06:50:12.777Z,0.97
2022-11-25T06:52:39.390Z,0.70
2022-11-25T06:55:06.341Z,0.90
2022-11-25T06:57:32.952Z,1.20
2022-11-25T06:59:59.551Z,1.00
2022-11-25T07:02:26.249Z,0.90
2022-11-25T07:04:53.741Z,0.80
2022-11-25T07:07:20.463Z,0.90
2022-11-25T07:09:47.614Z,0.83
2022-11-25T07:12:14.309Z,1.20
2022-11-25T07:14:40.923Z,1.23
2022-11-25T07:17:11.934Z,1.00
2022-11-25T07:19:38.920Z,0.90
2022-11-25T07:22:05.559Z,1.00
2022-11-25T07:24:33.796Z,1.17
2022-11-25T07:27:00.703Z,0.90
2022-11-25T07:29:54.248Z,1.00
2022-11-25T07:32:14.467Z,1.00
2022-11-25T07:34:41.133Z,1.07
2022-11-25T07:37:08.137Z,1.03
2022-11-25T07:39:35.242Z,1.10
2022-11-25T07:42:02.077Z,1.00
2022-11-25T07:44:28.661Z,0.90
2022-11-25T07:46:55.428Z,0.90
2022-11-25T07:49:22.769Z,1.20
2022-11-25T07:51:57.538Z,0.93
2022-11-25T07:54:24.341Z,1.30
2022-11-25T07:56:51.177Z,1.53
2022-11-25T07:59:20.001Z,1.10
2022-11-25T08:01:46.772Z,1.10
2022-11-25T08:04:19.853Z,1.50
2022-11-25T08:06:48.489Z,1.40
2022-11-25T08:09:19.105Z,1.40
2022-11-25T08:11:45.837Z,1.73
2022-11-25T08:14:12.466Z,1.67
2022-11-25T08:16:39.240Z,1.80
2022-11-25T08:19:07.384Z,1.60
2022-11-25T08:21:34.242Z,1.60
2022-11-25T08:24:02.936Z,1.57
2022-11-25T08:26:31.276Z,1.87
2022-11-25T08:28:58.321Z,1.60
2022-11-25T08:31:36.564Z,1.33
2022-11-25T08:34:03.754Z,1.97
2022-11-25T08:36:31.651Z,1.50
2022-11-25T08:38:59.681Z,1.30
2022-11-25T08:41:31.540Z,1.03
2022-11-25T08:43:59.162Z,1.70
2022-11-25T08:46:27.688Z,1.70
2022-11-25T08:48:54.493Z,1.80
2022-11-25T08:51:24.345Z,1.33
2022-11-25T08:53:53.757Z,2.00
2022-11-25T08:56:25.699Z,1.63
2022-11-25T08:58:53.559Z,1.57
2022-11-25T09:01:20.692Z,1.60
2022-11-25T09:03:49.050Z,1.50
2022-11-25T09:06:15.649Z,1.63
2022-11-25T09:08:42.851Z,1.87
2022-11-25T09:11:09.608Z,1.60
2022-11-25T09:13:36.368Z,1.10
2022-11-25T09:16:03.475Z,1.30
2022-11-25T09:18:31.340Z,1.20
2022-11-25T09:20:58.075Z,1.30
2022-11-25T09:23:25.128Z,1.30
2022-11-25T09:25:58.640Z,1.13
2022-11-25T09:28:25.617Z,1.50
2022-11-25T09:30:52.548Z,1.20
2022-11-25T09:33:19.624Z,1.23
2022-11-25T09:35:47.077Z,1.00
2022-11-25T09:38:13.676Z,1.20
2022-11-25T09:41:02.942Z,1.70
2022-11-25T09:44:06.935Z,1.37
2022-11-25T09:47:00.549Z,1.40
2022-11-25T09:49:30.888Z,1.10
2022-11-25T09:52:10.373Z,1.63
2022-11-25T09:54:42.511Z,1.40
2022-11-25T09:57:22.941Z,1.57
2022-11-25T10:00:11.126Z,1.20
2022-11-25T10:02:41.024Z,1.67
2022-11-25T10:05:09.736Z,1.30
2022-11-25T10:08:03.615Z,1.77
2022-11-25T10:10:31.515Z,1.40
2022-11-25T10:12:58.596Z,1.33
2022-11-25T10:15:31.699Z,1.50
2022-11-25T10:18:03.539Z,1.40
2022-11-25T10:20:37.844Z,1.53
2022-11-25T10:23:31.441Z,1.10
2022-11-25T10:26:01.371Z,1.47
2022-11-25T10:28:32.344Z,1.30
2022-11-25T10:31:25.224Z,1.50
2022-11-25T10:33:56.919Z,1.33
2022-11-25T10:36:26.539Z,1.27
2022-11-25T10:39:27.060Z,1.27
2022-11-25T10:42:23.305Z,1.40
2022-11-25T10:44:50.045Z,1.57
2022-11-25T10:47:34.964Z,1.40
2022-11-25T10:50:07.449Z,1.50
2022-11-25T10:52:41.041Z,1.67
2022-11-25T10:55:12.301Z,1.57
2022-11-25T10:57:38.960Z,1.63
2022-11-25T11:00:10.549Z,2.00
2022-11-25T11:02:40.973Z,1.50
2022-11-25T11:05:11.131Z,1.80
2022-11-25T11:07:43.007Z,1.70
2022-11-25T11:10:22.419Z,1.43
2022-11-25T11:12:59.257Z,1.63
2022-11-25T11:15:29.811Z,1.87
2022-11-25T11:17:57.308Z,1.20
2022-11-25T11:20:28.188Z,1.50
2022-11-25T11:23:15.136Z,1.20
2022-11-25T11:25:43.046Z,2.00
2022-11-25T11:28:34.956Z,1.30
2022-11-25T11:31:19.258Z,1.67
2022-11-25T11:34:04.299Z,1.80
2022-11-25T11:36:55.884Z,1.80
2022-11-25T11:39:43.740Z,1.70
2022-11-25T11:42:23.699Z,1.90
2022-11-25T11:45:14.823Z,1.80
2022-11-25T11:48:20.244Z,1.73
2022-11-25T11:50:51.069Z,1.43
2022-11-25T11:53:23.456Z,1.70
2022-11-25T11:56:34.763Z,1.67
2022-11-25T11:59:17.767Z,1.50
2022-11-25T12:02:09.291Z,1.80
2022-11-25T12:04:45.715Z,1.63
2022-11-25T12:07:21.204Z,1.63
2022-11-25T12:10:17.172Z,1.83
2022-11-25T12:13:08.497Z,1.90
2022-11-25T12:15:45.616Z,2.07
2022-11-25T12:18:20.776Z,1.90
2022-11-25T12:20:57.944Z,1.93
2022-11-25T12:23:46.213Z,2.03
2022-11-25T12:26:21.121Z,1.40
2022-11-25T12:28:59.731Z,1.40
2022-11-25T12:31:31.522Z,1.40
2022-11-25T12:34:21.692Z,1.50
2022-11-25T12:36:48.388Z,1.50
2022-11-25T12:39:23.422Z,1.30
2022-11-25T12:41:58.024Z,1.37
2022-11-25T12:44:38.259Z,1.57
2022-11-25T12:47:05.037Z,1.40
2022-11-25T12:49:32.794Z,1.60
2022-11-25T12:52:18.456Z,1.67
2022-11-25T12:55:08.695Z,1.27
2022-11-25T12:57:45.941Z,1.63
2022-11-25T13:03:25.641Z,1.80
2022-11-25T13:06:02.475Z,1.50
2022-11-25T13:08:50.183Z,1.40
2022-11-25T13:11:23.076Z,1.57
2022-11-25T13:13:54.890Z,1.20
2022-11-25T13:16:22.389Z,1.67
2022-11-25T13:18:49.312Z,1.50
2022-11-25T13:21:16.573Z,1.50
2022-11-25T13:23:52.110Z,1.60
2022-11-25T13:26:36.117Z,1.30
2022-11-25T13:29:25.823Z,1.13
2022-11-25T13:31:59.974Z,1.43
2022-11-25T13:34:36.569Z,1.53
2022-11-25T13:37:49.441Z,1.20
2022-11-25T13:40:31.099Z,1.70
2022-11-25T13:43:00.251Z,1.10
2022-11-25T13:45:29.681Z,1.23
2022-11-25T13:47:56.400Z,1.27
2022-11-25T13:50:28.984Z,1.30
2022-11-25T13:53:18.683Z,1.70
2022-11-25T13:55:45.295Z,1.50
2022-11-25T13:58:35.808Z,1.47
2022-11-25T14:01:31.798Z,1.53
2022-11-25T14:04:00.228Z,1.67
2022-11-25T14:06:51.013Z,1.47
2022-11-25T14:09:51.406Z,1.37
2022-11-25T14:12:35.853Z,1.50
2022-11-25T14:15:32.744Z,1.50
2022-11-25T14:19:21.828Z,1.50
2022-11-25T14:21:46.878Z,1.10
2022-11-25T14:24:16.605Z,0.97
2022-11-25T14:26:50.254Z,1.17
2022-11-25T14:29:32.303Z,1.00
2022-11-25T14:32:05.504Z,1.40
2022-11-25T14:34:33.601Z,1.20
2022-11-25T14:37:26.131Z,0.97
2022-11-25T14:40:01.634Z,1.43
2022-11-25T14:42:32.116Z,1.10
2022-11-25T14:44:59.252Z,1.00
2022-11-25T14:47:34.590Z,1.30
2022-11-25T14:50:33.252Z,0.83
2022-11-25T14:52:52.961Z,0.90
2022-11-25T14:55:30.507Z,1.00
2022-11-25T14:57:57.222Z,1.00
2022-11-25T15:00:24.055Z,1.50
2022-11-25T15:02:57.524Z,1.50
2022-11-25T15:05:26.932Z,1.10
2022-11-25T15:07:57.294Z,1.30
2022-11-25T15:10:35.475Z,1.57
2022-11-25T15:13:06.317Z,1.30
2022-11-25T15:15:32.929Z,1.30
2022-11-25T15:17:59.505Z,1.20
2022-11-25T15:20:26.135Z,1.20
2022-11-25T15:22:53.665Z,1.30
2022-11-25T15:25:20.483Z,1.37
2022-11-25T15:27:50.705Z,2.00
2022-11-25T15:30:18.855Z,1.70
2022-11-25T15:32:45.443Z,1.87
2022-11-25T15:35:21.256Z,1.87
2022-11-25T15:37:48.469Z,1.93
2022-11-25T15:40:43.144Z,1.80
2022-11-25T15:43:24.812Z,1.90
2022-11-25T15:45:52.575Z,2.10
2022-11-25T15:48:38.516Z,1.70
2022-11-25T15:51:07.074Z,1.70
2022-11-25T15:53:36.950Z,1.80
2022-11-25T15:56:04.396Z,2.00
2022-11-25T15:58:31.079Z,1.60
2022-11-25T16:01:16.034Z,1.30
2022-11-25T16:03:43.437Z,1.60
2022-11-25T16:06:26.733Z,1.20
2022-11-25T16:08:54.777Z,1.60
2022-11-25T16:11:21.576Z,1.57
2022-11-25T16:13:49.148Z,1.47
2022-11-25T16:16:24.056Z,1.50
2022-11-25T16:18:53.605Z,1.53
2022-11-25T16:21:24.939Z,1.57
2022-11-25T16:24:06.891Z,1.50
2022-11-25T16:26:53.351Z,1.20
2022-11-25T16:29:47.453Z,1.40
2022-11-25T16:32:15.918Z,1.33
2022-11-25T16:34:42.958Z,2.00
2022-11-25T16:37:09.650Z,1.70
2022-11-25T16:39:36.898Z,1.50
2022-11-25T16:42:04.530Z,1.97
2022-11-25T16:44:32.700Z,1.30
2022-11-25T16:46:59.361Z,1.50
2022-11-25T16:49:26.425Z,1.63
2022-11-25T16:51:53.182Z,1.40
2022-11-25T16:54:20.201Z,1.53
2022-11-25T16:56:49.644Z,1.60
2022-11-25T16:59:28.813Z,1.60
2022-11-25T17:01:55.584Z,1.30
2022-11-25T17:04:22.262Z,1.30
2022-11-25T17:07:16.629Z,2.00
2022-11-25T17:09:35.748Z,1.60
2022-11-25T17:12:02.492Z,1.47
2022-11-25T17:14:32.911Z,1.63
2022-11-25T17:16:59.953Z,1.60
2022-11-25T17:19:26.743Z,1.40
2022-11-25T17:21:53.371Z,1.63
2022-11-25T17:24:24.212Z,1.70
2022-11-25T17:27:10.280Z,1.60
2022-11-25T17:29:39.001Z,1.70
2022-11-25T17:32:05.692Z,1.20
2022-11-25T17:34:37.831Z,1.77
2022-11-25T17:37:23.997Z,1.60
2022-11-25T17:39:52.639Z,1.60
2022-11-25T17:42:21.732Z,1.70
2022-11-25T17:44:52.886Z,1.60
2022-11-25T17:47:20.848Z,1.40
2022-11-25T17:49:48.211Z,1.30
2022-11-25T17:52:14.892Z,1.70
2022-11-25T17:54:41.640Z,1.50
2022-11-25T17:57:11.031Z,1.50
2022-11-25T17:59:37.691Z,1.80
2022-11-25T18:02:18.150Z,1.70
2022-11-25T18:04:44.799Z,1.30
2022-11-25T18:07:11.467Z,1.77
2022-11-25T18:09:38.076Z,1.67
2022-11-25T18:12:15.364Z,2.10
2022-11-25T18:14:42.886Z,1.30
2022-11-25T18:17:12.620Z,2.10
2022-11-25T18:19:39.217Z,1.47
2022-11-25T18:22:12.884Z,1.47
2022-11-25T18:24:39.709Z,1.47
2022-11-25T18:27:06.875Z,1.63
2022-11-25T18:29:33.503Z,1.80
2022-11-25T18:32:00.133Z,2.53
2022-11-25T18:34:27.048Z,1.83
2022-11-25T18:36:53.843Z,2.20
2022-11-25T18:39:20.593Z,1.80
2022-11-25T18:41:47.391Z,2.10
2022-11-25T18:44:29.030Z,2.03
2022-11-25T18:46:55.650Z,2.00
2022-11-25T18:49:23.658Z,1.70
2022-11-25T18:51:50.338Z,2.50
2022-11-25T18:54:16.945Z,2.87
2022-11-25T18:56:43.559Z,1.87
2022-11-25T18:59:14.390Z,1.70
2022-11-25T19:01:44.231Z,1.70
2022-11-25T19:04:16.550Z,2.10
2022-11-25T19:06:43.697Z,2.00
2022-11-25T19:09:10.317Z,1.73
2022-11-25T19:11:39.241Z,2.23
2022-11-25T19:14:13.119Z,2.03
2022-11-25T19:16:39.847Z,1.63
2022-11-25T19:19:06.482Z,2.20
2022-11-25T19:21:33.489Z,2.27
2022-11-25T19:24:00.205Z,2.07
2022-11-25T19:26:28.814Z,2.37
2022-11-25T19:28:59.593Z,1.80
2022-11-25T19:31:26.239Z,2.10
2022-11-25T19:33:53.102Z,2.60
2022-11-25T19:36:24.272Z,1.93
2022-11-25T19:38:51.165Z,2.33
2022-11-25T19:41:17.810Z,2.50
2022-11-25T19:43:44.421Z,2.50
2022-11-25T19:46:41.189Z,2.27
2022-11-25T19:49:19.872Z,2.10
2022-11-25T19:51:46.480Z,2.50
2022-11-25T19:54:14.195Z,2.30
2022-11-25T19:56:41.256Z,2.50
2022-11-25T19:59:08.300Z,2.20
2022-11-25T20:01:36.386Z,2.57
2022-11-25T20:04:03.335Z,2.63
2022-11-25T20:06:30.545Z,2.87
2022-11-25T20:09:04.270Z,2.67
2022-11-25T20:11:34.868Z,2.73
2022-11-25T20:14:01.478Z,2.73
2022-11-25T20:16:31.036Z,2.90
2022-11-25T20:18:57.671Z,3.13
2022-11-25T20:21:27.012Z,3.10
2022-11-25T20:23:53.691Z,2.47
2022-11-25T20:26:28.165Z,2.60
2022-11-25T20:28:54.778Z,2.20
2022-11-25T20:31:22.107Z,2.30
2022-11-25T20:33:49.039Z,2.80
2022-11-25T20:36:17.089Z,2.33
2022-11-25T20:38:46.954Z,2.57
2022-11-25T20:41:13.869Z,2.53
2022-11-25T20:43:41.438Z,3.50
2022-11-25T20:46:26.133Z,2.70
2022-11-25T20:48:54.109Z,2.50
2022-11-25T20:51:21.365Z,2.90
2022-11-25T20:53:58.428Z,2.90
2022-11-25T20:56:25.738Z,2.87
2022-11-25T20:58:52.367Z,3.20
2022-11-25T21:01:19.076Z,3.03
2022-11-25T21:03:46.040Z,4.33
2022-11-25T21:06:29.129Z,3.57
2022-11-25T21:08:58.146Z,3.20
2022-11-25T21:11:27.601Z,2.80
2022-11-25T21:13:54.274Z,2.83
2022-11-25T21:16:21.048Z,3.07
2022-11-25T21:18:47.725Z,2.90
2022-11-25T21:21:25.981Z,2.43
2022-11-25T21:23:52.626Z,2.83
2022-11-25T21:26:20.852Z,2.60
2022-11-25T21:28:48.236Z,2.90
2022-11-25T21:31:22.810Z,3.30
2022-11-25T21:33:49.937Z,2.60
2022-11-25T21:36:23.692Z,2.70
2022-11-25T21:38:51.432Z,2.07
2022-11-25T21:41:18.257Z,2.43
2022-11-25T21:43:46.310Z,2.73
2022-11-25T21:46:16.872Z,2.83
2022-11-25T21:48:43.577Z,2.70
2022-11-25T21:51:11.753Z,2.50
2022-11-25T21:53:38.349Z,2.10
2022-11-25T21:56:15.315Z,2.60
2022-11-25T21:58:41.952Z,2.27
2022-11-25T22:01:09.409Z,2.43
2022-11-25T22:03:36.073Z,2.13
2022-11-25T22:06:02.682Z,2.60
2022-11-25T22:08:29.275Z,2.50
2022-11-25T22:10:55.988Z,2.47
2022-11-25T22:13:24.121Z,2.10
2022-11-25T22:15:53.931Z,2.30
2022-11-25T22:18:33.507Z,2.53
2022-11-25T22:21:00.271Z,2.20
2022-11-25T22:23:27.210Z,1.90
2022-11-25T22:25:53.826Z,2.10
2022-11-25T22:28:24.479Z,2.03
2022-11-25T22:30:52.176Z,2.10
2022-11-25T22:33:19.622Z,1.87
2022-11-25T22:35:46.392Z,2.07
2022-11-25T22:38:13.983Z,2.20
2022-11-25T22:40:42.472Z,2.90
2022-11-25T22:43:20.993Z,2.40
2022-11-25T22:45:47.638Z,2.50
2022-11-25T22:48:16.646Z,2.27
2022-11-25T22:50:43.552Z,2.53
2022-11-25T22:53:12.641Z,2.70
2022-11-25T22:55:39.245Z,2.47
2022-11-25T22:58:05.864Z,2.40
2022-11-25T23:00:37.610Z,2.60
2022-11-25T23:03:06.863Z,2.40
2022-11-25T23:05:34.724Z,2.10
2022-11-25T23:08:02.599Z,2.30
2022-11-25T23:10:30.351Z,2.37
2022-11-25T23:12:56.976Z,2.20
2022-11-25T23:15:23.924Z,2.67
2022-11-25T23:17:54.784Z,2.23
2022-11-25T23:20:26.178Z,2.40
2022-11-25T23:22:52.877Z,2.60
2022-11-25T23:25:20.657Z,2.37
2022-11-25T23:27:47.498Z,2.37
2022-11-25T23:30:18.638Z,2.57
2022-11-25T23:32:45.703Z,2.20
2022-11-25T23:35:17.109Z,2.20
2022-11-25T23:37:43.775Z,2.80
2022-11-25T23:40:18.032Z,2.70
2022-11-25T23:42:45.016Z,2.50
2022-11-25T23:45:16.245Z,2.20
2022-11-25T23:47:44.433Z,2.30
2022-11-25T23:50:32.151Z,2.77
2022-11-25T23:53:01.882Z,2.47
2022-11-25T23:55:31.247Z,2.20
2022-11-25T23:57:58.292Z,2.30
